This is the latest recevied weather packets stored in our database for station/object KE0TNI-13. If no packets are shown the sender has not sent any weather packets the latest 1 day(s).
| Time | Temp. | Humidity | Pressure | Rain* | Wind** | Luminosity | Snow |
|---|---|---|---|---|---|---|---|
| 1778007133 | -1.11° C | 96% | 1013.6 hPa | 0 mm | 1.34 m/s, 118° | 97 W/m² | - |
| 1778006829 | -1.11° C | 96% | 1013.9 hPa | 0.51 mm | 0.89 m/s, 165° | 65 W/m² | - |
| 1778006527 | -1.11° C | 96% | 1014 hPa | 0.51 mm | 0.89 m/s, 116° | 81 W/m² | - |
| 1778006223 | -1.11° C | 96% | 1014.1 hPa | 0.51 mm | 0.89 m/s, 163° | 85 W/m² | - |
| 1778005920 | -1.11° C | 96% | 1013.7 hPa | 0.51 mm | 0.89 m/s, 199° | 87 W/m² | - |
| 1778005616 | -1.11° C | 96% | 1014.1 hPa | 0 mm | 0.45 m/s, 191° | 76 W/m² | - |
| 1778005314 | -1.11° C | 96% | 1014.1 hPa | 0 mm | 0.89 m/s, 356° | 60 W/m² | - |
| 1778005010 | -1.11° C | 96% | 1014 hPa | 0 mm | 0 m/s | 68 W/m² | - |
| 1778004708 | -1.11° C | 96% | 1014.1 hPa | 0.51 mm | 0.89 m/s, 8° | 66 W/m² | - |
| 1778004403 | -1.11° C | 96% | 1014.1 hPa | 0.51 mm | 0 m/s | 80 W/m² | - |
| 1778004101 | -1.11° C | 96% | 1014.1 hPa | 0 mm | 0.89 m/s, 159° | 84 W/m² | - |
| 1778003797 | -1.11° C | 96% | 1014.1 hPa | 0 mm | 0.45 m/s, 190° | 92 W/m² | - |
| 1778003493 | -1.11° C | 96% | 1014.4 hPa | 0 mm | 0.89 m/s, 164° | 121 W/m² | - |
| 1778003190 | -1.67° C | 96% | 1014.5 hPa | 0 mm | 0.89 m/s, 192° | 83 W/m² | - |
| 1778002886 | -1.11° C | 96% | 1014.5 hPa | 0 mm | 0.45 m/s, 182° | 70 W/m² | - |
| 1778002583 | -1.11° C | 96% | 1014.3 hPa | 0 mm | 1.34 m/s, 166° | 93 W/m² | - |
| 1778002280 | -1.67° C | 96% | 1014.7 hPa | 0 mm | 0.45 m/s, 133° | 100 W/m² | - |
| 1778001978 | -1.11° C | 96% | 1014.1 hPa | 0 mm | 0.89 m/s, 162° | 97 W/m² | - |
| 1778001674 | -1.11° C | 97% | 1014.7 hPa | 0 mm | 0.45 m/s, 140° | 95 W/m² | - |
| 1778001369 | -1.67° C | 96% | 1014.5 hPa | 0 mm | 0 m/s | 85 W/m² | - |
| 1778001066 | -1.67° C | 96% | 1014.5 hPa | 0 mm | 0 m/s | 73 W/m² | - |
| 1778000763 | -1.67° C | 96% | 1014.5 hPa | 0 mm | 0.89 m/s, 168° | 73 W/m² | - |
| 1778000459 | -1.67° C | 97% | 1014.5 hPa | 0 mm | 1.79 m/s, 134° | 78 W/m² | - |
| 1778000154 | -1.67° C | 97% | 1014.8 hPa | 0 mm | 1.34 m/s, 154° | 107 W/m² | - |
| 1777999850 | -1.67° C | 97% | 1014.7 hPa | 0.51 mm | 0.89 m/s, 165° | 104 W/m² | - |
* Rain latest hour (hover to see other rain measurements)
** Current wind speed in m/s (hover to see current wind gust speed)